Station Historical Data
Daily Summary for January 5, 2012 Units:  English    Metric   Both
« Previous Day
Next Day »
Daily Weekly Monthly Yearly Custom
  High: Low: Average:
Temperature: 58.7 °F 31.7 °F 44.2 °F
Dew Point: 38.4 °F 30.6 °F 33.6 °F
Humidity: 97% 37% 70%
Wind Speed: 8.0mph 0.0mph 1.6mph
Wind Gust: 9.0mph - -
Wind- - SSW
Pressure: 30.28 in 30.10 in -
Precipitation: 0.00 in    
Historical Graphs
 
 
Tabular Data for January 5, 2012
Time Temperature Dew Point Pressure Wind Wind Speed Wind Gust Humidity Rainfall Rate (Hourly) Conditions
00:00 39.5 °F 35.1 °F 30.22 in WSW 1.0 mph 2.0 mph 84% 0.00 in
00:01 39.5 °F 35.4 °F 30.22 in WSW 1.0 mph 2.0 mph 85% 0.00 in
00:06 39.5 °F 35.4 °F 30.22 in WSW 1.0 mph 2.0 mph 85% 0.00 in
00:11 39.4 °F 35.0 °F 30.22 in WSW 1.0 mph 1.0 mph 84% 0.00 in
00:16 39.3 °F 35.2 °F 30.22 in West 1.0 mph 2.0 mph 85% 0.00 in
00:21 39.2 °F 35.1 °F 30.22 in WSW 2.0 mph 3.0 mph 85% 0.00 in
00:26 39.2 °F 35.1 °F 30.22 in Calm   2.0 mph 85% 0.00 in
00:31 39.1 °F 35.0 °F 30.22 in WSW 2.0 mph 3.0 mph 85% 0.00 in
00:36 39.0 °F 34.9 °F 30.22 in West 1.0 mph 2.0 mph 85% 0.00 in
00:41 38.9 °F 34.8 °F 30.22 in West 2.0 mph 3.0 mph 85% 0.00 in
00:46 38.9 °F 35.1 °F 30.22 in WSW 3.0 mph 4.0 mph 86% 0.00 in
00:51 39.0 °F 35.2 °F 30.22 in WSW 1.0 mph 2.0 mph 86% 0.00 in
00:56 39.0 °F 35.2 °F 30.23 in WNW 1.0 mph 1.0 mph 86% 0.00 in
01:01 39.0 °F 35.2 °F 30.22 in Calm   1.0 mph 86% 0.00 in
01:06 39.1 °F 35.3 °F 30.22 in Calm   1.0 mph 86% 0.00 in
01:11 39.1 °F 35.3 °F 30.22 in Calm     86% 0.00 in
01:16 39.0 °F 35.2 °F 30.22 in Calm     86% 0.00 in
01:21 38.8 °F 35.0 °F 30.22 in Calm     86% 0.00 in
01:26 38.8 °F 35.3 °F 30.22 in Calm   1.0 mph 87% 0.00 in
01:31 38.8 °F 35.3 °F 30.22 in Calm     87% 0.00 in
01:36 38.7 °F 35.2 °F 30.21 in Calm     87% 0.00 in
01:41 38.5 °F 35.0 °F 30.21 in Calm     87% 0.00 in
01:46 38.5 °F 35.3 °F 30.21 in Calm     88% 0.00 in
01:51 38.4 °F 35.2 °F 30.21 in Calm     88% 0.00 in
01:56 38.3 °F 35.1 °F 30.21 in Calm     88% 0.00 in
02:01 38.4 °F 35.2 °F 30.21 in SW 1.0 mph 1.0 mph 88% 0.00 in
02:06 38.1 °F 34.9 °F 30.20 in Calm   1.0 mph 88% 0.00 in
02:11 37.6 °F 34.4 °F 30.20 in SSW 1.0 mph 2.0 mph 88% 0.00 in
02:16 37.2 °F 34.3 °F 30.20 in SSW 1.0 mph 2.0 mph 89% 0.00 in
02:21 37.0 °F 34.1 °F 30.20 in SW 1.0 mph 2.0 mph 89% 0.00 in
02:26 37.1 °F 34.4 °F 30.20 in Calm   2.0 mph 90% 0.00 in
02:31 37.1 °F 34.4 °F 30.20 in SW 2.0 mph 3.0 mph 90% 0.00 in
02:36 37.2 °F 34.3 °F 30.20 in WSW 2.0 mph 2.0 mph 89% 0.00 in
02:41 37.3 °F 34.6 °F 30.20 in WSW 2.0 mph 3.0 mph 90% 0.00 in
02:46 37.3 °F 34.4 °F 30.20 in WSW 2.0 mph 2.0 mph 89% 0.00 in
02:51 37.3 °F 34.4 °F 30.20 in WSW 2.0 mph 2.0 mph 89% 0.00 in
02:56 37.3 °F 34.4 °F 30.20 in WSW 2.0 mph 2.0 mph 89% 0.00 in
03:01 37.2 °F 34.3 °F 30.20 in WSW 1.0 mph 2.0 mph 89% 0.00 in
03:06 37.0 °F 34.3 °F 30.20 in Calm   2.0 mph 90% 0.00 in
03:11 36.9 °F 34.2 °F 30.20 in Calm   1.0 mph 90% 0.00 in
03:16 36.6 °F 34.0 °F 30.20 in WSW 1.0 mph 1.0 mph 90% 0.00 in
03:21 36.3 °F 33.9 °F 30.20 in Calm     91% 0.00 in
03:26 36.4 °F 34.3 °F 30.20 in Calm   1.0 mph 92% 0.00 in
03:32 36.5 °F 34.4 °F 30.20 in Calm   1.0 mph 92% 0.00 in
03:37 36.4 °F 34.3 °F 30.19 in SW 2.0 mph 2.0 mph 92% 0.00 in
03:42 36.4 °F 34.0 °F 30.19 in WSW 1.0 mph 2.0 mph 91% 0.00 in
03:47 36.1 °F 33.7 °F 30.19 in Calm   1.0 mph 91% 0.00 in
03:52 35.7 °F 33.6 °F 30.19 in Calm   1.0 mph 92% 0.00 in
03:57 35.5 °F 33.4 °F 30.19 in Calm     92% 0.00 in
04:02 35.5 °F 33.7 °F 30.19 in Calm     93% 0.00 in
04:07 35.8 °F 34.2 °F 30.19 in Calm     94% 0.00 in
04:12 36.0 °F 34.2 °F 30.19 in Calm     93% 0.00 in
04:17 36.1 °F 34.3 °F 30.19 in Calm     93% 0.00 in
04:22 36.3 °F 34.5 °F 30.19 in Calm     93% 0.00 in
04:27 36.2 °F 34.4 °F 30.19 in Calm     93% 0.00 in
04:32 36.0 °F 34.2 °F 30.19 in Calm     93% 0.00 in
04:37 36.0 °F 34.2 °F 30.19 in Calm     93% 0.00 in
04:42 36.1 °F 34.3 °F 30.19 in Calm     93% 0.00 in
04:47 35.9 °F 34.1 °F 30.19 in Calm     93% 0.00 in
04:52 35.4 °F 33.6 °F 30.19 in Calm     93% 0.00 in
04:57 35.1 °F 33.3 °F 30.19 in Calm     93% 0.00 in
05:03 34.9 °F 33.1 °F 30.20 in Calm     93% 0.00 in
05:08 34.9 °F 33.3 °F 30.20 in Calm     94% 0.00 in
05:13 34.9 °F 33.3 °F 30.20 in Calm     94% 0.00 in
05:18 34.8 °F 33.2 °F 30.20 in Calm     94% 0.00 in
05:23 34.7 °F 33.2 °F 30.20 in Calm     94% 0.00 in
05:28 34.5 °F 33.0 °F 30.20 in Calm     94% 0.00 in
05:33 34.0 °F 32.5 °F 30.20 in Calm     94% 0.00 in
05:38 33.5 °F 32.0 °F 30.20 in Calm     94% 0.00 in
05:43 33.6 °F 32.3 °F 30.20 in Calm     95% 0.00 in
05:48 33.3 °F 32.0 °F 30.19 in Calm     95% 0.00 in
05:53 33.4 °F 32.1 °F 30.19 in Calm     95% 0.00 in
05:58 33.5 °F 32.2 °F 30.20 in Calm     95% 0.00 in
06:03 33.6 °F 32.6 °F 30.20 in Calm     96% 0.00 in
06:08 33.6 °F 32.6 °F 30.20 in Calm     96% 0.00 in
06:13 33.2 °F 31.9 °F 30.20 in Calm     95% 0.00 in
06:18 32.5 °F 31.2 °F 30.20 in Calm     95% 0.00 in
06:23 31.9 °F 30.6 °F 30.20 in Calm     95% 0.00 in
06:28 32.5 °F 31.5 °F 30.20 in Calm     96% 0.00 in
06:33 32.7 °F 31.7 °F 30.20 in Calm     96% 0.00 in
06:38 32.4 °F 31.4 °F 30.20 in Calm     96% 0.00 in
06:43 32.7 °F 31.7 °F 30.20 in Calm     96% 0.00 in
06:48 32.5 °F 31.5 °F 30.20 in Calm     96% 0.00 in
06:53 32.6 °F 31.6 °F 30.20 in Calm     96% 0.00 in
06:58 32.6 °F 31.6 °F 30.21 in Calm     96% 0.00 in
07:03 32.4 °F 31.4 °F 30.21 in Calm     96% 0.00 in
07:08 32.4 °F 31.4 °F 30.21 in Calm     96% 0.00 in
07:13 32.4 °F 31.4 °F 30.21 in Calm     96% 0.00 in
07:18 32.1 °F 31.1 °F 30.21 in Calm     96% 0.00 in
07:23 31.8 °F 30.8 °F 30.21 in Calm     96% 0.00 in
07:28 31.7 °F 30.7 °F 30.21 in Calm     96% 0.00 in
07:33 32.1 °F 31.1 °F 30.22 in Calm     96% 0.00 in
07:38 32.0 °F 31.0 °F 30.22 in Calm     96% 0.00 in
07:43 32.3 °F 31.3 °F 30.22 in Calm     96% 0.00 in
07:48 32.6 °F 31.8 °F 30.22 in Calm     97% 0.00 in
07:53 32.9 °F 32.1 °F 30.22 in Calm     97% 0.00 in
07:58 32.7 °F 31.9 °F 30.22 in Calm     97% 0.00 in
08:03 32.3 °F 31.3 °F 30.22 in Calm     96% 0.00 in
08:08 32.3 °F 31.3 °F 30.22 in Calm     96% 0.00 in
08:13 32.5 °F 31.7 °F 30.22 in Calm     97% 0.00 in
08:18 32.5 °F 31.7 °F 30.23 in Calm     97% 0.00 in
08:23 32.6 °F 31.8 °F 30.23 in Calm     97% 0.00 in
08:28 32.5 °F 31.5 °F 30.23 in Calm     96% 0.00 in
08:33 32.4 °F 31.4 °F 30.23 in Calm     96% 0.00 in
08:39 32.7 °F 31.7 °F 30.24 in Calm     96% 0.00 in
08:44 32.3 °F 31.3 °F 30.24 in Calm     96% 0.00 in
08:49 32.4 °F 31.4 °F 30.24 in North 1.0 mph 2.0 mph 96% 0.00 in
08:54 33.0 °F 32.0 °F 30.25 in North 2.0 mph 2.0 mph 96% 0.00 in
08:59 33.9 °F 33.1 °F 30.25 in North 1.0 mph 2.0 mph 97% 0.00 in
09:04 34.6 °F 33.8 °F 30.25 in North 1.0 mph 2.0 mph 97% 0.00 in
09:09 35.2 °F 34.4 °F 30.25 in Calm   1.0 mph 97% 0.00 in
09:14 36.0 °F 35.2 °F 30.25 in Calm   1.0 mph 97% 0.00 in
09:19 36.7 °F 35.9 °F 30.26 in Calm   1.0 mph 97% 0.00 in
09:24 37.2 °F 36.4 °F 30.26 in NNW 1.0 mph 2.0 mph 97% 0.00 in
09:29 37.7 °F 36.7 °F 30.26 in NNW 2.0 mph 2.0 mph 96% 0.00 in
09:34 38.4 °F 37.4 °F 30.26 in NNW 1.0 mph 2.0 mph 96% 0.00 in
09:39 39.2 °F 38.2 °F 30.26 in NNW 3.0 mph 3.0 mph 96% 0.00 in
09:44 39.9 °F 38.0 °F 30.26 in NNE 3.0 mph 4.0 mph 93% 0.00 in
09:49 40.7 °F 38.0 °F 30.27 in North 3.0 mph 5.0 mph 90% 0.00 in
09:54 41.4 °F 38.4 °F 30.27 in North 2.0 mph 4.0 mph 89% 0.00 in
09:59 41.9 °F 38.3 °F 30.27 in NW 2.0 mph 5.0 mph 87% 0.00 in
10:04 42.5 °F 37.7 °F 30.27 in NNW 4.0 mph 5.0 mph 83% 0.00 in
10:09 42.8 °F 37.4 °F 30.27 in NNW 4.0 mph 5.0 mph 81% 0.00 in
10:14 43.4 °F 38.0 °F 30.27 in NNW 3.0 mph 4.0 mph 81% 0.00 in
10:19 43.9 °F 37.5 °F 30.27 in NNE 3.0 mph 3.0 mph 78% 0.00 in
10:24 44.4 °F 38.0 °F 30.27 in NNE 3.0 mph 4.0 mph 78% 0.00 in
10:29 44.5 °F 36.7 °F 30.28 in NE 4.0 mph 5.0 mph 74% 0.00 in
10:34 44.5 °F 36.4 °F 30.28 in NNE 2.0 mph 4.0 mph 73% 0.00 in
10:39 44.9 °F 37.1 °F 30.28 in NE 2.0 mph 3.0 mph 74% 0.00 in
10:44 45.5 °F 38.0 °F 30.28 in East 2.0 mph 3.0 mph 75% 0.00 in
10:49 45.9 °F 37.0 °F 30.28 in NNE 2.0 mph 4.0 mph 71% 0.00 in
10:54 46.1 °F 37.2 °F 30.28 in NE 2.0 mph 2.0 mph 71% 0.00 in
10:59 46.4 °F 37.2 °F 30.28 in East 3.0 mph 4.0 mph 70% 0.00 in
11:04 46.7 °F 37.1 °F 30.28 in ESE 3.0 mph 3.0 mph 69% 0.00 in
11:09 47.0 °F 36.2 °F 30.28 in Calm   2.0 mph 66% 0.00 in
11:14 47.8 °F 36.6 °F 30.27 in North 2.0 mph 3.0 mph 65% 0.00 in
11:19 48.0 °F 36.8 °F 30.27 in East 2.0 mph 4.0 mph 65% 0.00 in
11:25 48.3 °F 37.5 °F 30.27 in North 3.0 mph 3.0 mph 66% 0.00 in
11:30 49.0 °F 36.6 °F 30.27 in North 1.0 mph 3.0 mph 62% 0.00 in
11:35 49.1 °F 36.7 °F 30.27 in NW 1.0 mph 4.0 mph 62% 0.00 in
11:40 49.1 °F 36.7 °F 30.26 in WNW 3.0 mph 3.0 mph 62% 0.00 in
11:45 49.4 °F 36.9 °F 30.26 in NW 1.0 mph 2.0 mph 62% 0.00 in
11:50 49.7 °F 36.8 °F 30.26 in NW 1.0 mph 3.0 mph 61% 0.00 in
11:55 50.0 °F 36.7 °F 30.25 in NW 2.0 mph 3.0 mph 60% 0.00 in
11:56 50.0 °F 36.7 °F 30.25 in NW 1.0 mph 3.0 mph 60% 0.00 in
12:01 50.4 °F 37.0 °F 30.25 in WNW 2.0 mph 3.0 mph 60% 0.00 in
12:06 50.2 °F 36.0 °F 30.25 in NW 1.0 mph 2.0 mph 58% 0.00 in
12:11 50.9 °F 37.1 °F 30.25 in Calm   2.0 mph 59% 0.00 in
12:16 51.4 °F 37.1 °F 30.24 in WSW 3.0 mph 3.0 mph 58% 0.00 in
12:21 51.5 °F 37.2 °F 30.24 in Calm   2.0 mph 58% 0.00 in
12:26 52.4 °F 36.3 °F 30.23 in Calm   4.0 mph 54% 0.00 in
12:31 52.6 °F 36.0 °F 30.23 in West 3.0 mph 5.0 mph 53% 0.00 in
12:36 52.2 °F 34.6 °F 30.23 in West 3.0 mph 5.0 mph 51% 0.00 in
12:41 52.3 °F 35.2 °F 30.22 in NNW 3.0 mph 4.0 mph 52% 0.00 in
12:46 52.5 °F 35.4 °F 30.22 in Calm   5.0 mph 52% 0.00 in
12:51 53.2 °F 36.5 °F 30.22 in SW 1.0 mph 1.0 mph 53% 0.00 in
12:56 53.7 °F 37.0 °F 30.22 in SW 3.0 mph 3.0 mph 53% 0.00 in
13:01 53.9 °F 36.2 °F 30.21 in SE 1.0 mph 4.0 mph 51% 0.00 in
13:06 54.1 °F 35.9 °F 30.21 in SE 2.0 mph 3.0 mph 50% 0.00 in
13:11 54.2 °F 35.5 °F 30.20 in WSW 1.0 mph 4.0 mph 49% 0.00 in
13:16 54.0 °F 34.2 °F 30.20 in Calm   4.0 mph 47% 0.00 in
13:21 54.3 °F 35.6 °F 30.20 in SSW 2.0 mph 5.0 mph 49% 0.00 in
13:26 54.4 °F 34.6 °F 30.19 in NE 2.0 mph 3.0 mph 47% 0.00 in
13:31 53.9 °F 35.2 °F 30.19 in ESE 2.0 mph 3.0 mph 49% 0.00 in
13:36 54.5 °F 34.2 °F 30.19 in West 3.0 mph 4.0 mph 46% 0.00 in
13:41 54.8 °F 33.3 °F 30.18 in WNW 1.0 mph 4.0 mph 44% 0.00 in
13:46 54.9 °F 32.8 °F 30.18 in SW 3.0 mph 8.0 mph 43% 0.00 in
13:51 55.2 °F 32.5 °F 30.18 in SSE 3.0 mph 6.0 mph 42% 0.00 in
13:56 55.5 °F 32.8 °F 30.17 in SSW 2.0 mph 5.0 mph 42% 0.00 in
14:01 55.7 °F 32.4 °F 30.17 in SW 3.0 mph 4.0 mph 41% 0.00 in
14:06 55.9 °F 32.0 °F 30.16 in SSW 3.0 mph 6.0 mph 40% 0.00 in
14:11 55.8 °F 31.9 °F 30.16 in WSW 1.0 mph 4.0 mph 40% 0.00 in
14:16 56.0 °F 30.8 °F 30.16 in ENE 1.0 mph 4.0 mph 38% 0.00 in
14:21 55.9 °F 31.3 °F 30.16 in SW 3.0 mph 5.0 mph 39% 0.00 in
14:26 56.3 °F 31.0 °F 30.16 in SW 1.0 mph 4.0 mph 38% 0.00 in
14:32 56.7 °F 31.4 °F 30.16 in WSW 4.0 mph 5.0 mph 38% 0.00 in
14:37 56.8 °F 32.1 °F 30.15 in WNW 2.0 mph 3.0 mph 39% 0.00 in
14:42 57.0 °F 32.9 °F 30.15 in South 2.0 mph 5.0 mph 40% 0.00 in
14:47 57.5 °F 32.8 °F 30.15 in SW 5.0 mph 6.0 mph 39% 0.00 in
14:52 57.3 °F 31.3 °F 30.15 in WNW 3.0 mph 3.0 mph 37% 0.00 in
14:57 57.3 °F 31.9 °F 30.15 in WSW 3.0 mph 4.0 mph 38% 0.00 in
15:02 57.1 °F 31.8 °F 30.15 in West 4.0 mph 5.0 mph 38% 0.00 in
15:07 57.3 °F 32.6 °F 30.15 in SSW 3.0 mph 4.0 mph 39% 0.00 in
15:12 57.3 °F 32.6 °F 30.14 in SSE 2.0 mph 5.0 mph 39% 0.00 in
15:17 57.4 °F 33.3 °F 30.15 in SSW 4.0 mph 6.0 mph 40% 0.00 in
15:22 57.2 °F 32.5 °F 30.15 in SW 5.0 mph 8.0 mph 39% 0.00 in
15:27 57.4 °F 32.0 °F 30.14 in SW 3.0 mph 5.0 mph 38% 0.00 in
15:32 57.5 °F 32.1 °F 30.14 in WSW 3.0 mph 6.0 mph 38% 0.00 in
15:37 57.6 °F 32.2 °F 30.14 in West 1.0 mph 5.0 mph 38% 0.00 in
15:42 58.0 °F 32.6 °F 30.14 in South 3.0 mph 6.0 mph 38% 0.00 in
15:47 58.3 °F 32.2 °F 30.14 in WSW 5.0 mph 5.0 mph 37% 0.00 in
15:53 58.2 °F 32.1 °F 30.14 in WSW 3.0 mph 5.0 mph 37% 0.00 in
15:58 58.5 °F 32.3 °F 30.14 in WSW 2.0 mph 3.0 mph 37% 0.00 in
16:03 58.6 °F 32.4 °F 30.14 in SSE 3.0 mph 4.0 mph 37% 0.00 in
16:08 58.7 °F 33.2 °F 30.14 in SSE 2.0 mph 4.0 mph 38% 0.00 in
16:13 58.5 °F 33.0 °F 30.14 in SSW 1.0 mph 5.0 mph 38% 0.00 in
16:18 58.6 °F 32.4 °F 30.14 in SW 4.0 mph 6.0 mph 37% 0.00 in
16:23 58.6 °F 33.7 °F 30.14 in South 2.0 mph 6.0 mph 39% 0.00 in
16:28 58.5 °F 33.7 °F 30.14 in South 4.0 mph 7.0 mph 39% 0.00 in
16:33 58.4 °F 34.2 °F 30.14 in SW 4.0 mph 5.0 mph 40% 0.00 in
16:38 58.3 °F 33.5 °F 30.14 in SSE 5.0 mph 7.0 mph 39% 0.00 in
16:43 58.1 °F 33.3 °F 30.14 in South 8.0 mph 8.0 mph 39% 0.00 in
16:48 57.8 °F 33.7 °F 30.13 in South 5.0 mph 8.0 mph 40% 0.00 in
16:53 57.6 °F 32.8 °F 30.13 in South 4.0 mph 6.0 mph 39% 0.00 in
16:58 57.2 °F 35.5 °F 30.13 in South 4.0 mph 8.0 mph 44% 0.00 in
17:03 56.8 °F 36.8 °F 30.13 in South 3.0 mph 7.0 mph 47% 0.00 in
17:08 56.2 °F 36.3 °F 30.13 in SSE 4.0 mph 8.0 mph 47% 0.00 in
17:13 55.7 °F 35.8 °F 30.13 in SW 4.0 mph 9.0 mph 47% 0.00 in
17:18 55.3 °F 35.4 °F 30.13 in SSE 5.0 mph 7.0 mph 47% 0.00 in
17:23 55.0 °F 35.7 °F 30.13 in South 4.0 mph 7.0 mph 48% 0.00 in
17:28 54.7 °F 35.4 °F 30.13 in SW 6.0 mph 6.0 mph 48% 0.00 in
17:33 54.5 °F 35.2 °F 30.13 in SSW 4.0 mph 7.0 mph 48% 0.00 in
17:38 54.0 °F 34.8 °F 30.13 in South 3.0 mph 6.0 mph 48% 0.00 in
17:43 53.0 °F 34.4 °F 30.12 in South 3.0 mph 5.0 mph 49% 0.00 in
17:48 52.1 °F 34.5 °F 30.12 in South 4.0 mph 4.0 mph 51% 0.00 in
17:53 51.3 °F 33.8 °F 30.12 in SSE 2.0 mph 4.0 mph 51% 0.00 in
17:58 51.0 °F 33.5 °F 30.12 in South 4.0 mph 7.0 mph 51% 0.00 in
18:03 50.7 °F 33.2 °F 30.12 in South 3.0 mph 5.0 mph 51% 0.00 in
18:08 50.4 °F 33.5 °F 30.12 in SSE 2.0 mph 3.0 mph 52% 0.00 in
18:13 50.0 °F 33.1 °F 30.12 in SSE 3.0 mph 3.0 mph 52% 0.00 in
18:18 49.7 °F 32.8 °F 30.12 in SSE 2.0 mph 3.0 mph 52% 0.00 in
18:23 49.4 °F 33.0 °F 30.13 in SSE 2.0 mph 3.0 mph 53% 0.00 in
18:28 49.1 °F 32.7 °F 30.13 in SSE 2.0 mph 3.0 mph 53% 0.00 in
18:33 48.9 °F 32.5 °F 30.13 in SSE 2.0 mph 2.0 mph 53% 0.00 in
18:38 48.6 °F 32.7 °F 30.13 in SSE 1.0 mph 2.0 mph 54% 0.00 in
18:43 48.3 °F 32.4 °F 30.13 in SSE 1.0 mph 1.0 mph 54% 0.00 in
18:48 48.2 °F 32.8 °F 30.13 in SSE 1.0 mph 1.0 mph 55% 0.00 in
18:53 48.1 °F 32.7 °F 30.13 in SSE 1.0 mph 2.0 mph 55% 0.00 in
18:58 48.3 °F 32.9 °F 30.13 in SSE 1.0 mph 2.0 mph 55% 0.00 in
19:03 48.2 °F 32.8 °F 30.13 in SSE 2.0 mph 2.0 mph 55% 0.00 in
19:08 47.9 °F 32.5 °F 30.13 in SSE 1.0 mph 2.0 mph 55% 0.00 in
19:13 47.8 °F 32.4 °F 30.13 in SSE 1.0 mph 1.0 mph 55% 0.00 in
19:18 47.6 °F 32.7 °F 30.13 in SSE 1.0 mph 1.0 mph 56% 0.00 in
19:24 47.5 °F 32.6 °F 30.13 in SSE 2.0 mph 2.0 mph 56% 0.00 in
19:29 47.5 °F 32.6 °F 30.13 in SE 2.0 mph 2.0 mph 56% 0.00 in
19:34 47.4 °F 32.5 °F 30.13 in SE 1.0 mph 2.0 mph 56% 0.00 in
19:39 47.1 °F 32.2 °F 30.13 in SE 1.0 mph 1.0 mph 56% 0.00 in
19:44 47.2 °F 32.3 °F 30.13 in SSE 2.0 mph 2.0 mph 56% 0.00 in
19:49 47.5 °F 32.6 °F 30.13 in SSE 2.0 mph 2.0 mph 56% 0.00 in
19:54 47.4 °F 32.1 °F 30.13 in SSE 2.0 mph 3.0 mph 55% 0.00 in
19:59 47.7 °F 32.3 °F 30.13 in SSE 1.0 mph 2.0 mph 55% 0.00 in
20:04 47.6 °F 31.8 °F 30.13 in SSW 1.0 mph 2.0 mph 54% 0.00 in
20:09 47.4 °F 31.6 °F 30.13 in South 2.0 mph 2.0 mph 54% 0.00 in
20:14 47.2 °F 31.4 °F 30.13 in SSW 2.0 mph 2.0 mph 54% 0.00 in
20:19 47.2 °F 31.4 °F 30.13 in SSW 1.0 mph 2.0 mph 54% 0.00 in
20:24 47.1 °F 31.3 °F 30.13 in South 2.0 mph 3.0 mph 54% 0.00 in
20:29 47.1 °F 30.9 °F 30.13 in South 2.0 mph 4.0 mph 53% 0.00 in
20:34 47.1 °F 30.9 °F 30.13 in South 2.0 mph 3.0 mph 53% 0.00 in
20:39 47.1 °F 30.9 °F 30.13 in SSW 2.0 mph 4.0 mph 53% 0.00 in
20:44 47.2 °F 31.0 °F 30.13 in SSW 2.0 mph 3.0 mph 53% 0.00 in
20:49 47.1 °F 30.9 °F 30.13 in South 2.0 mph 3.0 mph 53% 0.00 in
20:54 46.9 °F 31.1 °F 30.13 in SSE 1.0 mph 2.0 mph 54% 0.00 in
20:59 46.6 °F 30.9 °F 30.13 in SSW 2.0 mph 2.0 mph 54% 0.00 in
21:04 46.4 °F 31.1 °F 30.13 in SSW 1.0 mph 2.0 mph 55% 0.00 in
21:09 46.2 °F 30.9 °F 30.13 in SSW 1.0 mph 2.0 mph 55% 0.00 in
21:14 46.0 °F 30.8 °F 30.13 in SSW 1.0 mph 1.0 mph 55% 0.00 in
21:19 45.8 °F 31.0 °F 30.13 in SSW 2.0 mph 2.0 mph 56% 0.00 in
21:24 45.6 °F 31.3 °F 30.13 in SW 2.0 mph 2.0 mph 57% 0.00 in
21:29 45.6 °F 31.3 °F 30.13 in SW 2.0 mph 3.0 mph 57% 0.00 in
21:34 45.6 °F 31.3 °F 30.13 in SW 2.0 mph 3.0 mph 57% 0.00 in
21:39 45.7 °F 31.4 °F 30.13 in SW 4.0 mph 4.0 mph 57% 0.00 in
21:44 45.6 °F 31.3 °F 30.13 in SW 3.0 mph 4.0 mph 57% 0.00 in
21:49 45.5 °F 31.2 °F 30.13 in SW 4.0 mph 4.0 mph 57% 0.00 in
21:54 45.5 °F 31.6 °F 30.13 in SW 3.0 mph 4.0 mph 58% 0.00 in
21:59 45.6 °F 31.7 °F 30.13 in SW 4.0 mph 4.0 mph 58% 0.00 in
22:04 45.4 °F 31.5 °F 30.13 in SW 3.0 mph 4.0 mph 58% 0.00 in
22:09 45.0 °F 31.1 °F 30.13 in SW 2.0 mph 3.0 mph 58% 0.00 in
22:14 44.8 °F 31.4 °F 30.13 in SSW 3.0 mph 3.0 mph 59% 0.00 in
22:19 44.6 °F 31.2 °F 30.13 in SW 2.0 mph 3.0 mph 59% 0.00 in
22:24 44.5 °F 31.5 °F 30.13 in SSW 2.0 mph 3.0 mph 60% 0.00 in
22:29 44.3 °F 31.3 °F 30.13 in SW 2.0 mph 3.0 mph 60% 0.00 in
22:34 44.4 °F 31.4 °F 30.13 in SW 2.0 mph 4.0 mph 60% 0.00 in
22:39 44.3 °F 31.3 °F 30.12 in SSW 3.0 mph 3.0 mph 60% 0.00 in
22:44 44.2 °F 31.2 °F 30.12 in SSW 3.0 mph 4.0 mph 60% 0.00 in
22:49 44.1 °F 31.5 °F 30.12 in SSW 3.0 mph 4.0 mph 61% 0.00 in
22:55 43.9 °F 31.3 °F 30.12 in SSW 2.0 mph 3.0 mph 61% 0.00 in
23:00 43.7 °F 31.1 °F 30.12 in SW 2.0 mph 3.0 mph 61% 0.00 in
23:05 43.7 °F 31.5 °F 30.12 in SW 2.0 mph 4.0 mph 62% 0.00 in
23:10 43.4 °F 31.3 °F 30.12 in SSW 2.0 mph 2.0 mph 62% 0.00 in
23:15 43.2 °F 31.5 °F 30.12 in SSW 2.0 mph 3.0 mph 63% 0.00 in
23:20 43.2 °F 31.5 °F 30.12 in SSW 2.0 mph 3.0 mph 63% 0.00 in
23:25 43.2 °F 31.5 °F 30.11 in SSW 3.0 mph 4.0 mph 63% 0.00 in
23:30 43.2 °F 31.9 °F 30.11 in SSW 3.0 mph 4.0 mph 64% 0.00 in
23:35 43.3 °F 32.0 °F 30.11 in SSW 2.0 mph 4.0 mph 64% 0.00 in
23:40 43.5 °F 31.8 °F 30.10 in South 3.0 mph 4.0 mph 63% 0.00 in
23:45 43.9 °F 31.7 °F 30.10 in SSW 2.0 mph 4.0 mph 62% 0.00 in
23:50 44.1 °F 31.9 °F 30.10 in SW 3.0 mph 4.0 mph 62% 0.00 in
23:55 43.9 °F 31.7 °F 30.10 in SSW 3.0 mph 4.0 mph 62% 0.00 in
Compliments of Weather Underground